METAR AND TAF INFORMATION
METAR FOR SBBQ
ADDS - METARS form results

(1121 UTC 19 January 2019)
Data provider http://aviationweather.gov/metar/data/
 
METAR text: SBBQ 191100Z 35003KT 9999 FEW005 22/19 Q1022
Conditions at: SBBQ (BARBACENA (CIV/M, BR) observed 1100 UTC 19 January 2019
Temperature: 22.0°C (72°F)
Dewpoint: 19.0°C (66°F) [RH = 83%]
Pressure (altimeter): 30.18 inches Hg (1022.0 mb)
Winds: from the N (350 degrees) at 3 MPH (3 knots; 1.5 m/s)
Visibility: 6 or more miles (10+ km)
Ceiling: at least 12,000 feet AGL
Clouds: few clouds at 500 feet AGL
Weather: no significant weather observed at this time

 AIRPORT MAP

 RUNWAY INFORMATION
Runway 18 Runway length 5774 ft Runway width 98 ft
Runway elevation 0 ft Runway displaced threshold 0 ft Runway heading 0
Runway 36 Runway length 5774 ft Runway width 98 ft
Runway elevation 0 ft Runway displaced threshold 0 ft Runway heading 0

 AIRPORT FREQUENCIES
Type AFIS Name RDO Frequency 125.9 MHZ

 AIRPORT NEAR NAVIGATION AIDS
Type NDB Name Barbacena Frequency 285 KHZ



Powered by Virtual Airlines Manager [v2.6.2]